Gilbertown, Alabama
Current Conditions -  °F | °C
As of 5:58 AM on Friday 28 Nov 2014 (Local Time) from KMEI Reporting Station
Clear Clear  
Wind Chill: 28°   Ceiling: Unl
Heat Index: 28°   Visibility: 10mi
Dew Point: 26°   Wind: 0mph
Humidity: 92%   Direction: NA
Pressure: 30.44"   Gusts: NA
Location:  31.88°N, 88.32°W
Report Text: KMEI 281158Z 00000KT 10SM CLR M02/M03 A3044 RMK AO2 SLP310 T10221033 10011 21022 57000
Loading
Personal Weather Stations






























Interactive Weather Map New forecast layout! Learn more

10-Day Weather Forecast

Advertisements
Track Severe Weather on mobile